Time;durP1;ratioP1;P1;durP2;ratioP2;P2;SDS_P1;SDS_P2;PMS_P1;PMS_P2;Temp;Humidity;BMP_temperature;BMP_pressure;BME280_temperature;BME280_humidity;BME280_pressure;Samples;Min_cycle;Max_cycle;Signal;HPM_P1;HPM_P2
2023/07/15 04:02:30;;;;;;;0.70;0.17;;;22.40;1.00;;;;;;5175098;23;20497;-69
2023/07/15 04:04:58;;;;;;;0.70;0.20;;;22.20;1.00;;;;;;4996686;28;20967;-69
2023/07/15 04:07:26;;;;;;;0.70;0.10;;;22.20;1.00;;;;;;4994513;28;20815;-70
2023/07/15 04:09:54;;;;;;;2.30;2.20;;;22.20;1.00;;;;;;4992643;28;20444;-69
2023/07/15 04:12:22;;;;;;;0.70;0.20;;;22.20;1.00;;;;;;4977735;28;20524;-70
2023/07/15 04:14:51;;;;;;;0.70;0.20;;;22.20;1.00;;;;;;5020604;23;20495;-73
2023/07/15 04:17:18;;;;;;;0.70;0.10;;;22.20;1.00;;;;;;5013587;28;20497;-74
2023/07/15 04:19:48;;;;;;;0.70;0.10;;;22.30;1.00;;;;;;4999057;28;20481;-74
2023/07/15 04:22:16;;;;;;;0.70;0.10;;;22.30;1.00;;;;;;5012161;28;20449;-75
2023/07/15 04:24:44;;;;;;;0.70;0.20;;;22.30;1.00;;;;;;5001266;28;20964;-74
2023/07/15 04:27:12;;;;;;;0.70;0.17;;;;;;;;;;4993922;28;20454;-74
2023/07/15 04:29:41;;;;;;;0.70;0.20;;;;;;;;;;4993178;28;20454;-74
2023/07/15 04:32:09;;;;;;;0.70;0.10;;;22.40;1.00;;;;;;4992912;28;20490;-73
2023/07/15 04:34:37;;;;;;;0.70;0.20;;;22.50;1.00;;;;;;4993292;28;20506;-73
2023/07/15 04:37:06;;;;;;;0.70;0.20;;;22.70;1.00;;;;;;4993169;28;20450;-73
2023/07/15 04:39:34;;;;;;;0.70;0.20;;;22.70;1.00;;;;;;4993076;28;20437;-74
2023/07/15 04:42:03;;;;;;;0.70;0.10;;;22.70;1.00;;;;;;4992583;28;20981;-74
2023/07/15 04:44:31;;;;;;;0.70;0.20;;;;;;;;;;4992705;28;20479;-74
2023/07/15 04:46:59;;;;;;;0.70;0.10;;;22.80;1.00;;;;;;4993123;28;20451;-74
2023/07/15 04:49:27;;;;;;;0.70;0.10;;;22.80;1.00;;;;;;4992991;28;20501;-74
2023/07/15 04:51:55;;;;;;;0.70;0.13;;;;;;;;;;4992643;28;20476;-74
2023/07/15 04:54:24;;;;;;;0.70;0.20;;;23.00;1.00;;;;;;4992700;28;20471;-74
2023/07/15 04:56:53;;;;;;;0.70;0.20;;;23.00;1.00;;;;;;4993137;28;20499;-74
2023/07/15 04:59:21;;;;;;;0.70;0.20;;;23.10;1.00;;;;;;4992956;28;20451;-74
2023/07/15 05:01:49;;;;;;;0.70;0.20;;;23.00;1.00;;;;;;4992789;28;20538;-74
2023/07/15 05:04:17;;;;;;;0.70;0.17;;;23.10;1.00;;;;;;4992502;28;21164;-74
2023/07/15 05:06:45;;;;;;;0.70;0.10;;;23.20;1.00;;;;;;4992240;28;20957;-74
2023/07/15 05:09:13;;;;;;;0.70;0.10;;;23.30;1.00;;;;;;4992867;28;20550;-74
2023/07/15 05:11:42;;;;;;;0.70;0.20;;;23.30;1.00;;;;;;4981754;28;20510;-74
2023/07/15 05:14:11;;;;;;;0.70;0.20;;;23.40;1.00;;;;;;4992395;28;20893;-74
2023/07/15 05:16:43;;;;;;;0.70;0.10;;;23.30;1.00;;;;;;4992374;28;20459;-74
2023/07/15 05:19:12;;;;;;;0.70;0.20;;;;;;;;;;4992858;28;20457;-74
2023/07/15 05:21:41;;;;;;;0.70;0.10;;;;;;;;;;4992433;28;20494;-74
2023/07/15 05:24:09;;;;;;;0.70;0.10;;;23.40;1.00;;;;;;4992316;28;20554;-74
2023/07/15 05:26:37;;;;;;;0.70;0.10;;;;;;;;;;4992353;28;21090;-74
2023/07/15 05:29:08;;;;;;;0.70;0.20;;;23.50;1.00;;;;;;4992542;28;20452;-74
2023/07/15 05:31:36;;;;;;;0.70;0.17;;;23.50;1.00;;;;;;4992310;28;20493;-74
2023/07/15 05:34:05;;;;;;;0.70;0.10;;;;;;;;;;4992247;28;20479;-74
2023/07/15 05:36:33;;;;;;;0.70;0.20;;;;;;;;;;4992673;28;20447;-74
2023/07/15 05:39:01;;;;;;;0.70;0.20;;;23.80;1.00;;;;;;4992316;28;20484;-74
2023/07/15 05:41:29;;;;;;;0.70;0.20;;;24.00;1.00;;;;;;4992348;28;20443;-74
2023/07/15 05:43:57;;;;;;;0.70;0.20;;;24.00;1.00;;;;;;4991984;28;20488;-74
2023/07/15 05:46:27;;;;;;;0.70;0.20;;;24.10;1.00;;;;;;4991987;28;20452;-74
2023/07/15 05:48:55;;;;;;;0.70;0.20;;;24.20;1.00;;;;;;4980088;28;20966;-74
2023/07/15 05:51:23;;;;;;;0.70;0.10;;;24.30;1.00;;;;;;4988876;28;20488;-74
2023/07/15 05:53:52;;;;;;;0.70;0.20;;;;;;;;;;4988000;28;20484;-74
2023/07/15 05:56:20;;;;;;;0.70;0.10;;;24.50;1.00;;;;;;4988240;28;20454;-74
2023/07/15 05:58:47;;;;;;;0.70;0.20;;;24.60;1.00;;;;;;4995339;28;20436;-74
2023/07/15 06:01:16;;;;;;;0.70;0.10;;;;;;;;;;4970959;28;20446;-74
2023/07/15 06:03:46;;;;;;;0.70;0.10;;;24.80;1.00;;;;;;4976804;28;20507;-74
2023/07/15 06:06:14;;;;;;;0.70;0.10;;;24.90;1.00;;;;;;4982513;28;20472;-74
2023/07/15 06:08:42;;;;;;;0.70;0.20;;;25.00;1.00;;;;;;4976960;28;20560;-74
2023/07/15 06:11:10;;;;;;;0.70;0.10;;;25.10;1.00;;;;;;4993857;28;21049;-74
2023/07/15 06:13:39;;;;;;;0.70;0.20;;;25.20;1.00;;;;;;4975664;28;20539;-74
2023/07/15 06:16:06;;;;;;;1.93;1.17;;;25.20;1.00;;;;;;4984638;28;20433;-74
2023/07/15 06:18:35;;;;;;;0.70;0.10;;;25.30;1.00;;;;;;4974418;28;20445;-74
2023/07/15 06:21:04;;;;;;;0.70;0.10;;;25.30;1.00;;;;;;4985423;28;20441;-73
2023/07/15 06:23:32;;;;;;;0.90;0.20;;;25.40;1.00;;;;;;4979588;28;20441;-73
2023/07/15 06:26:00;;;;;;;0.70;0.10;;;25.40;1.00;;;;;;4990904;28;20444;-74
2023/07/15 06:28:28;;;;;;;0.70;0.20;;;25.40;1.00;;;;;;4991413;28;21290;-73
2023/07/15 06:31:03;;;;;;;0.70;0.20;;;25.30;1.00;;;;;;4991798;28;20447;-75
2023/07/15 06:33:31;;;;;;;0.90;0.20;;;25.20;1.00;;;;;;4982958;28;20464;-75
2023/07/15 06:35:59;;;;;;;0.70;0.10;;;25.40;1.00;;;;;;4977915;28;20577;-74
2023/07/15 06:38:29;;;;;;;0.70;0.30;;;25.30;1.00;;;;;;4975788;28;20445;-73
2023/07/15 06:40:57;;;;;;;0.70;0.10;;;25.40;1.00;;;;;;4976417;28;20535;-74
2023/07/15 06:43:25;;;;;;;1.37;0.30;;;25.50;1.00;;;;;;4975754;28;20481;-74
2023/07/15 06:45:53;;;;;;;0.70;0.20;;;;;;;;;;4975760;28;20451;-74
2023/07/15 06:48:22;;;;;;;0.70;0.20;;;25.70;1.00;;;;;;4980492;28;20816;-74
2023/07/15 06:50:51;;;;;;;0.70;0.20;;;;;;;;;;4980876;28;20504;-73
2023/07/15 06:53:19;;;;;;;17.30;8.87;;;25.60;1.00;;;;;;4979312;28;20485;-73
2023/07/15 06:55:48;;;;;;;0.70;0.10;;;25.60;1.00;;;;;;4976933;28;20458;-74
2023/07/15 06:58:20;;;;;;;1.37;1.27;;;25.60;1.00;;;;;;4976054;28;20456;-74
2023/07/15 07:00:49;;;;;;;1.30;1.17;;;;;;;;;;4975455;28;20484;-74
2023/07/15 07:03:17;;;;;;;0.70;0.10;;;;;;;;;;4974833;28;20600;-74
2023/07/15 07:05:45;;;;;;;0.70;0.10;;;;;;;;;;4975048;28;20446;-73
2023/07/15 07:08:14;;;;;;;2.63;2.30;;;;;;;;;;4986097;28;20465;-74
2023/07/15 07:10:42;;;;;;;0.70;0.10;;;;;;;;;;4999910;28;20445;-75
2023/07/15 07:13:11;;;;;;;0.70;0.20;;;26.00;1.00;;;;;;5003208;28;20720;-76
2023/07/15 07:15:40;;;;;;;0.70;0.20;;;;;;;;;;4982473;28;20984;-76
2023/07/15 07:18:07;;;;;;;0.70;0.10;;;26.20;1.00;;;;;;4991733;28;20444;-75
2023/07/15 07:20:36;;;;;;;0.70;0.10;;;26.20;1.00;;;;;;4981136;28;20572;-75
2023/07/15 07:23:04;;;;;;;0.70;0.10;;;;;;;;;;4985945;28;20441;-75
2023/07/15 07:25:32;;;;;;;0.70;0.20;;;26.30;1.00;;;;;;4984888;28;20488;-75
2023/07/15 07:28:01;;;;;;;0.70;0.10;;;;;;;;;;4978130;28;20548;-76
2023/07/15 07:30:30;;;;;;;0.70;0.10;;;26.30;1.00;;;;;;4990143;28;20465;-75
2023/07/15 07:32:58;;;;;;;0.70;0.10;;;26.30;1.00;;;;;;4983450;28;20563;-75
2023/07/15 07:35:27;;;;;;;0.70;0.10;;;;;;;;;;4983179;28;20468;-75
2023/07/15 07:37:55;;;;;;;0.70;0.10;;;;;;;;;;4975430;28;20449;-75
2023/07/15 07:40:24;;;;;;;0.70;0.10;;;26.30;1.00;;;;;;4989829;28;20472;-76
2023/07/15 07:42:52;;;;;;;0.70;0.10;;;26.40;1.00;;;;;;4979092;28;20441;-76
2023/07/15 07:45:21;;;;;;;0.70;0.10;;;;;;;;;;4982949;28;20466;-74
2023/07/15 07:47:50;;;;;;;0.70;0.10;;;26.50;1.00;;;;;;4986289;28;20453;-75
2023/07/15 07:50:18;;;;;;;0.70;0.20;;;26.60;1.00;;;;;;4983331;28;20466;-74
2023/07/15 07:52:47;;;;;;;0.70;0.20;;;26.70;1.00;;;;;;4992024;28;20477;-74
2023/07/15 07:55:15;;;;;;;0.70;0.10;;;26.80;1.00;;;;;;4995285;28;20502;-74
2023/07/15 07:57:43;;;;;;;0.70;0.17;;;26.80;1.00;;;;;;4984508;28;20441;-75
2023/07/15 08:00:12;;;;;;;0.70;0.20;;;26.80;1.00;;;;;;4989293;28;20440;-75
2023/07/15 08:02:41;;;;;;;0.70;0.10;;;26.90;1.00;;;;;;4992336;28;21022;-75
2023/07/15 08:05:10;;;;;;;0.70;0.20;;;27.00;1.00;;;;;;4992708;28;20472;-75
2023/07/15 08:07:38;;;;;;;0.70;0.10;;;27.00;1.00;;;;;;4993581;28;20867;-75
2023/07/15 08:10:07;;;;;;;2.00;1.90;;;27.10;1.00;;;;;;4992877;28;20519;-75
2023/07/15 08:12:36;;;;;;;0.70;0.10;;;;;;;;;;4971700;28;20792;-75
2023/07/15 08:15:04;;;;;;;0.70;0.20;;;27.10;1.00;;;;;;4993481;28;20579;-75
2023/07/15 08:17:36;;;;;;;1.10;0.97;;;;;;;;;;4989708;28;20545;-75
2023/07/15 08:20:05;;;;;;;0.70;0.10;;;27.20;1.00;;;;;;5001712;28;20476;-75
2023/07/15 08:22:37;;;;;;;0.80;0.40;;;27.10;1.00;;;;;;5000112;28;20468;-75
2023/07/15 08:25:06;;;;;;;1.00;0.37;;;27.10;1.00;;;;;;5002555;28;20519;-73
2023/07/15 08:27:35;;;;;;;0.80;0.30;;;;;;;;;;5004599;28;20527;-75
2023/07/15 08:30:03;;;;;;;0.70;0.20;;;27.10;1.00;;;;;;4986105;28;20441;-72
2023/07/15 08:32:31;;;;;;;0.70;0.10;;;27.10;1.00;;;;;;4991103;28;20721;-74
2023/07/15 08:34:59;;;;;;;0.70;0.20;;;27.30;1.00;;;;;;5003920;28;20515;-73
2023/07/15 08:37:28;;;;;;;0.70;0.20;;;27.40;1.00;;;;;;5005998;28;20463;-74
2023/07/15 08:39:58;;;;;;;0.70;0.10;;;27.60;1.00;;;;;;5013228;28;20493;-75
2023/07/15 08:42:26;;;;;;;0.70;0.13;;;27.70;1.00;;;;;;5013098;28;20444;-75
2023/07/15 08:44:54;;;;;;;0.70;0.10;;;27.80;1.00;;;;;;5012827;28;20579;-74
2023/07/15 08:47:24;;;;;;;0.90;0.30;;;27.90;1.00;;;;;;5012620;28;20453;-74
2023/07/15 08:49:54;;;;;;;0.70;0.10;;;28.10;1.00;;;;;;5005641;28;20471;-75
2023/07/15 08:52:23;;;;;;;0.70;0.23;;;28.20;1.00;;;;;;4993129;28;20484;-74
2023/07/15 08:54:52;;;;;;;0.70;0.10;;;28.40;1.00;;;;;;4992581;28;20547;-72
2023/07/15 08:57:23;;;;;;;1.10;0.70;;;28.50;1.00;;;;;;4992696;28;20453;-77
2023/07/15 08:59:54;;;;;;;1.90;1.13;;;28.50;1.00;;;;;;4992878;28;20844;-72
2023/07/15 09:02:23;;;;;;;0.70;0.20;;;28.40;1.00;;;;;;4992518;28;20459;-74
2023/07/15 09:04:51;;;;;;;1.33;0.70;;;28.30;1.00;;;;;;4992626;28;20492;-74
2023/07/15 09:07:26;;;;;;;0.70;0.20;;;28.10;1.00;;;;;;4993626;28;20535;-75
2023/07/15 09:09:54;;;;;;;0.70;0.20;;;28.20;1.00;;;;;;4993054;28;20449;-74
2023/07/15 09:12:26;;;;;;;0.70;0.30;;;28.20;1.00;;;;;;4973688;28;20465;-75
2023/07/15 09:14:56;;;;;;;0.90;0.50;;;28.20;1.00;;;;;;4992375;28;20476;-74
2023/07/15 09:17:24;;;;;;;0.70;0.20;;;;;;;;;;5002161;28;20552;-77
2023/07/15 09:19:53;;;;;;;1.03;0.60;;;28.10;1.00;;;;;;4992535;28;20452;-75
2023/07/15 09:22:23;;;;;;;0.80;0.40;;;28.00;1.00;;;;;;4991609;28;20477;-73
2023/07/15 09:24:51;;;;;;;0.70;0.20;;;;;;;;;;4991046;28;20519;-74
2023/07/15 09:27:19;;;;;;;2.17;1.97;;;;;;;;;;4992443;28;20441;-75
2023/07/15 09:29:51;;;;;;;0.70;0.20;;;28.20;1.00;;;;;;4989656;28;20488;-76
2023/07/15 09:32:22;;;;;;;0.70;0.20;;;28.10;1.00;;;;;;4978571;28;20467;-75
2023/07/15 09:34:51;;;;;;;0.70;0.20;;;28.10;1.00;;;;;;4997085;28;20496;-75
2023/07/15 09:37:28;;;;;;;0.70;0.10;;;28.10;1.00;;;;;;4996119;28;20468;-75
2023/07/15 09:39:57;;;;;;;0.70;0.20;;;28.20;1.00;;;;;;4990232;28;20445;-77
2023/07/15 09:42:26;;;;;;;0.70;0.20;;;28.10;1.00;;;;;;4973905;28;20453;-76
2023/07/15 09:44:56;;;;;;;0.70;0.10;;;28.20;1.00;;;;;;4998104;28;20496;-76
2023/07/15 09:47:27;;;;;;;0.70;0.10;;;28.10;1.00;;;;;;4990136;28;20441;-76
2023/07/15 09:49:55;;;;;;;0.70;0.20;;;28.10;1.00;;;;;;4991178;28;20544;-76
2023/07/15 09:52:24;;;;;;;0.70;0.10;;;28.10;1.00;;;;;;4992166;28;20448;-77
2023/07/15 09:54:52;;;;;;;0.70;0.10;;;28.00;1.00;;;;;;4980051;28;20897;-76
2023/07/15 09:57:22;;;;;;;0.70;0.17;;;28.00;1.00;;;;;;4972706;28;20870;-77
2023/07/15 09:59:56;;;;;;;0.70;0.20;;;27.80;1.00;;;;;;4972807;28;20445;-76
2023/07/15 10:02:34;;;;;;;0.70;0.20;;;27.80;1.00;;;;;;4972102;28;20496;-76
2023/07/15 10:05:05;;;;;;;0.70;0.10;;;27.80;1.00;;;;;;4972994;28;20472;-76
2023/07/15 10:07:33;;;;;;;0.70;0.20;;;27.70;1.00;;;;;;5001632;28;20936;-75
2023/07/15 10:10:02;;;;;;;0.70;0.30;;;27.60;1.00;;;;;;5004784;28;20463;-75
2023/07/15 10:12:33;;;;;;;0.70;0.10;;;27.60;1.00;;;;;;5004056;28;20462;-76
2023/07/15 10:15:03;;;;;;;0.70;0.10;;;27.60;1.00;;;;;;5006496;28;20993;-75
2023/07/15 10:17:34;;;;;;;0.70;0.10;;;27.60;1.00;;;;;;4996960;28;20525;-73
2023/07/15 10:20:07;;;;;;;0.70;0.20;;;27.50;1.00;;;;;;4998040;28;20454;-74
2023/07/15 10:22:35;;;;;;;0.83;0.50;;;27.50;1.00;;;;;;4999298;28;20437;-75
2023/07/15 10:25:07;;;;;;;0.70;0.10;;;27.50;1.00;;;;;;4997191;28;20479;-75
2023/07/15 10:27:36;;;;;;;0.70;0.10;;;;;;;;;;4990089;28;20540;-73
2023/07/15 10:30:23;;;;;;;0.70;0.20;;;27.50;1.00;;;;;;4987355;28;20448;-73
2023/07/15 10:33:11;;;;;;;0.70;0.20;;;27.50;1.00;;;;;;4997161;28;20445;-72
2023/07/15 10:35:50;;;;;;;0.70;0.20;;;27.40;1.00;;;;;;4983387;28;21013;-73
2023/07/15 10:38:23;;;;;;;0.70;0.10;;;27.40;1.00;;;;;;4994038;28;20463;-74
2023/07/15 10:40:53;;;;;;;0.70;0.10;;;27.40;1.00;;;;;;4978271;28;20457;-72
2023/07/15 10:43:21;;;;;;;1.27;0.23;;;27.40;1.00;;;;;;4991185;28;20445;-73
2023/07/15 10:45:53;;;;;;;0.70;0.10;;;27.40;1.00;;;;;;4984146;28;20532;-69
2023/07/15 10:48:23;;;;;;;0.70;0.20;;;27.40;1.00;;;;;;5002245;28;20460;-71
2023/07/15 10:50:55;;;;;;;0.80;0.30;;;27.50;1.00;;;;;;5008557;28;20456;-72
2023/07/15 10:53:26;;;;;;;1.37;0.30;;;27.50;1.00;;;;;;4996552;28;20445;-70
2023/07/15 10:55:55;;;;;;;1.60;0.97;;;27.50;1.00;;;;;;4981210;28;20454;-70
2023/07/15 10:58:23;;;;;;;0.70;0.10;;;27.50;1.00;;;;;;4975852;28;20454;-70
2023/07/15 11:00:58;;;;;;;1.10;0.80;;;27.50;1.00;;;;;;4975801;28;20611;-70
2023/07/15 11:03:26;;;;;;;0.90;0.50;;;27.50;1.00;;;;;;4976829;28;20516;-71
2023/07/15 11:05:57;;;;;;;1.33;0.43;;;27.50;1.00;;;;;;4977279;28;20972;-70
2023/07/15 11:08:25;;;;;;;0.70;0.20;;;27.50;1.00;;;;;;4976738;28;20816;-72
2023/07/15 11:11:00;;;;;;;0.80;0.30;;;27.60;1.00;;;;;;4983883;28;20480;-72
2023/07/15 11:13:29;;;;;;;2.50;1.03;;;27.60;1.00;;;;;;4988480;28;20466;-73
2023/07/15 11:15:59;;;;;;;1.00;0.50;;;27.60;1.00;;;;;;4991066;28;20485;-71
2023/07/15 11:18:27;;;;;;;4.53;0.80;;;27.60;1.00;;;;;;4995720;28;21177;-72
2023/07/15 11:20:57;;;;;;;7.20;2.30;;;27.70;1.00;;;;;;4996341;28;20469;-72
2023/07/15 11:23:25;;;;;;;1.10;0.70;;;;;;;;;;4994052;28;20551;-72
2023/07/15 11:25:54;;;;;;;0.70;0.20;;;;;;;;;;4996437;28;20429;-77
2023/07/15 11:28:22;;;;;;;9.47;8.63;;;;;;;;;;5007752;28;20981;-73
2023/07/15 11:30:50;;;;;;;2.70;2.03;;;27.60;1.00;;;;;;5016457;28;20532;-69
2023/07/15 11:33:19;;;;;;;1.47;1.07;;;27.50;1.00;;;;;;5011269;28;20447;-74
2023/07/15 11:35:48;;;;;;;0.70;0.20;;;27.50;1.00;;;;;;4999406;28;20489;-73
2023/07/15 11:38:17;;;;;;;4.40;1.40;;;27.60;1.00;;;;;;5017296;28;20468;-73
2023/07/15 11:40:52;;;;;;;0.70;0.20;;;27.60;1.00;;;;;;5002273;28;20456;-74
2023/07/15 11:43:22;;;;;;;0.70;0.10;;;27.60;1.00;;;;;;4996994;28;20457;-73
2023/07/15 11:45:52;;;;;;;1.07;0.40;;;27.60;1.00;;;;;;4996508;28;20517;-75
2023/07/15 11:48:23;;;;;;;0.70;0.20;;;27.70;1.00;;;;;;4996622;28;20481;-74
2023/07/15 11:50:51;;;;;;;0.70;0.20;;;27.70;1.00;;;;;;4995761;28;20486;-74
2023/07/15 11:53:26;;;;;;;1.60;1.43;;;27.60;1.00;;;;;;4995513;28;20453;-74
2023/07/15 11:55:55;;;;;;;3.87;3.50;;;;;;;;;;4996113;28;20490;-75
2023/07/15 11:58:41;;;;;;;1.23;1.00;;;27.60;1.00;;;;;;4995875;28;20491;-74
2023/07/15 12:01:12;;;;;;;3.13;3.00;;;27.50;1.00;;;;;;4994862;28;20446;-73
2023/07/15 12:03:42;;;;;;;2.40;1.60;;;27.50;1.00;;;;;;4975645;28;20964;-74
2023/07/15 12:06:14;;;;;;;3.07;1.07;;;27.50;1.00;;;;;;4976049;28;20446;-74
2023/07/15 12:08:43;;;;;;;0.70;0.10;;;;;;;;;;4976302;28;20472;-73
2023/07/15 12:11:17;;;;;;;0.70;0.20;;;27.50;1.00;;;;;;4985150;28;20487;-73
2023/07/15 12:13:45;;;;;;;0.70;0.10;;;27.50;1.00;;;;;;4993195;28;20563;-74
2023/07/15 12:16:13;;;;;;;0.80;0.20;;;27.60;1.00;;;;;;4995711;28;20480;-73
2023/07/15 12:18:43;;;;;;;0.80;0.30;;;27.50;1.00;;;;;;4978744;28;20453;-74
2023/07/15 12:21:11;;;;;;;2.80;1.47;;;;;;;;;;4994109;28;20544;-73
2023/07/15 12:23:40;;;;;;;0.80;0.43;;;;;;;;;;4997822;28;20530;-73
2023/07/15 12:26:08;;;;;;;0.70;0.20;;;27.40;1.00;;;;;;5012121;28;20507;-73
2023/07/15 12:28:36;;;;;;;1.27;0.60;;;;;;;;;;5003269;28;20450;-73
2023/07/15 12:31:05;;;;;;;1.20;0.53;;;27.50;1.00;;;;;;4985876;28;20501;-74
2023/07/15 12:33:33;;;;;;;2.00;0.50;;;27.50;1.00;;;;;;4989186;28;20522;-73
2023/07/15 12:36:02;;;;;;;0.90;0.30;;;27.50;1.00;;;;;;5009913;28;20479;-73
2023/07/15 12:38:31;;;;;;;1.00;0.73;;;;;;;;;;4994080;28;20455;-70
2023/07/15 12:40:59;;;;;;;1.23;0.63;;;27.50;1.00;;;;;;4994316;28;20480;-73
2023/07/15 12:43:27;;;;;;;2.83;1.00;;;;;;;;;;4976840;28;20481;-74
2023/07/15 12:45:55;;;;;;;2.07;0.53;;;27.50;1.00;;;;;;4974745;28;20454;-73
2023/07/15 12:48:23;;;;;;;2.00;1.43;;;27.50;1.00;;;;;;4992144;28;20552;-73
2023/07/15 12:50:51;;;;;;;1.67;0.83;;;;;;;;;;4987506;28;20528;-74
2023/07/15 12:53:22;;;;;;;1.80;1.20;;;27.40;1.00;;;;;;4983142;28;20483;-77
2023/07/15 12:55:51;;;;;;;1.23;0.90;;;27.50;1.00;;;;;;4987512;28;20481;-75
2023/07/15 12:58:19;;;;;;;0.83;0.50;;;27.50;1.00;;;;;;4984757;28;20501;-75
2023/07/15 13:00:47;;;;;;;0.70;0.10;;;27.60;1.00;;;;;;4987556;28;20468;-75
2023/07/15 13:03:15;;;;;;;0.90;0.70;;;27.70;1.00;;;;;;4982410;28;20469;-76
2023/07/15 13:05:44;;;;;;;5.40;4.10;;;;;;;;;;4986882;28;20544;-75
2023/07/15 13:08:14;;;;;;;3.43;2.33;;;27.60;1.00;;;;;;4982293;28;20474;-75
2023/07/15 13:10:44;;;;;;;0.70;0.40;;;27.40;1.00;;;;;;4985236;28;20450;-76
2023/07/15 13:13:12;;;;;;;0.80;0.40;;;27.30;1.00;;;;;;4989309;28;20508;-77
2023/07/15 13:15:44;;;;;;;1.00;0.90;;;27.20;1.00;;;;;;4986408;28;20485;-75
2023/07/15 13:18:12;;;;;;;2.00;1.70;;;27.20;1.00;;;;;;4986059;28;20441;-75
2023/07/15 13:20:40;;;;;;;1.83;1.13;;;27.10;1.00;;;;;;4994245;28;20480;-74
2023/07/15 13:23:09;;;;;;;0.80;0.70;;;;;;;;;;4999028;28;20476;-74
2023/07/15 13:25:37;;;;;;;2.83;0.77;;;26.80;1.00;;;;;;4985894;28;20480;-74
2023/07/15 13:28:07;;;;;;;1.07;0.50;;;26.70;1.00;;;;;;5001751;28;20532;-74
2023/07/15 13:30:35;;;;;;;1.30;0.83;;;26.50;1.00;;;;;;5002037;28;20514;-74
2023/07/15 13:33:03;;;;;;;0.70;0.30;;;;;;;;;;5000165;28;21033;-74
2023/07/15 13:35:31;;;;;;;1.20;0.60;;;26.30;1.00;;;;;;4998175;28;20505;-73
2023/07/15 13:37:59;;;;;;;0.70;0.37;;;;;;;;;;4993406;28;20480;-73
2023/07/15 13:40:27;;;;;;;0.90;0.50;;;26.10;1.00;;;;;;4998462;28;20444;-74
2023/07/15 13:42:56;;;;;;;4.40;2.63;;;;;;;;;;5006668;28;20436;-74
2023/07/15 13:45:25;;;;;;;0.70;0.20;;;26.00;1.00;;;;;;5017606;28;20494;-72
2023/07/15 13:47:53;;;;;;;1.73;0.67;;;26.10;1.00;;;;;;5009758;28;20444;-73
2023/07/15 13:50:25;;;;;;;2.00;1.00;;;;;;;;;;5004962;28;20441;-75
2023/07/15 13:52:53;;;;;;;2.40;1.50;;;;;;;;;;4999043;28;20857;-75
2023/07/15 13:55:21;;;;;;;1.23;0.50;;;;;;;;;;4987240;28;20971;-66
2023/07/15 13:57:50;;;;;;;0.70;0.20;;;26.20;1.00;;;;;;4996136;28;20998;-66
2023/07/15 14:00:18;;;;;;;0.70;0.17;;;;;;;;;;5006163;28;20444;-66
2023/07/15 14:02:47;;;;;;;1.90;0.50;;;26.00;1.00;;;;;;5002736;28;21024;-65
2023/07/15 14:05:16;;;;;;;1.10;0.40;;;;;;;;;;4999389;28;20479;-66
2023/07/15 14:07:44;;;;;;;3.47;1.67;;;25.80;1.00;;;;;;5000311;28;20455;-66
2023/07/15 14:10:12;;;;;;;0.80;0.37;;;25.50;1.00;;;;;;4997249;28;20462;-67
2023/07/15 14:12:41;;;;;;;2.30;0.73;;;;;;;;;;4996458;28;20495;-65
2023/07/15 14:15:10;;;;;;;1.33;0.73;;;25.30;1.00;;;;;;5001699;28;20533;-65
2023/07/15 14:17:38;;;;;;;1.63;0.83;;;;;;;;;;5002425;28;20503;-66
2023/07/15 14:20:09;;;;;;;0.97;0.40;;;24.60;21.60;;;;;;4987599;28;20808;-66
2023/07/15 14:22:37;;;;;;;0.70;0.20;;;24.40;28.00;;;;;;4988222;28;20448;-65
2023/07/15 14:25:17;;;;;;;9.27;1.07;;;;;;;;;;4980323;28;20464;-64
2023/07/15 14:27:45;;;;;;;0.70;0.30;;;24.30;38.20;;;;;;4983390;28;20445;-65
2023/07/15 14:30:13;;;;;;;1.10;0.63;;;24.40;38.30;;;;;;4987724;28;20445;-66
2023/07/15 14:32:42;;;;;;;1.23;1.13;;;;;;;;;;4989113;28;20451;-65
2023/07/15 14:35:11;;;;;;;1.20;0.97;;;24.30;48.10;;;;;;4990981;28;20515;-65
2023/07/15 14:37:39;;;;;;;0.70;0.13;;;;;;;;;;4989597;28;20484;-64
2023/07/15 14:40:09;;;;;;;1.93;0.80;;;24.30;59.00;;;;;;4988831;28;20525;-66
2023/07/15 14:42:38;;;;;;;0.70;0.20;;;24.30;62.40;;;;;;4998919;28;20530;-69
2023/07/15 14:45:07;;;;;;;0.70;0.30;;;24.30;65.40;;;;;;4993237;28;20503;-69
2023/07/15 14:47:35;;;;;;;1.43;0.90;;;;;;;;;;4994141;28;20527;-69
2023/07/15 14:50:04;;;;;;;0.70;0.17;;;24.40;73.40;;;;;;4980371;28;20485;-70
2023/07/15 14:52:34;;;;;;;1.57;0.97;;;24.50;69.90;;;;;;4973322;28;20469;-68
2023/07/15 14:55:02;;;;;;;0.70;0.10;;;24.40;80.70;;;;;;4973833;28;21043;-68
2023/07/15 14:57:30;;;;;;;0.80;0.50;;;24.50;88.40;;;;;;4975155;28;20485;-68
2023/07/15 14:59:58;;;;;;;0.70;0.10;;;24.40;91.30;;;;;;4975488;28;20513;-69
2023/07/15 15:02:26;;;;;;;0.70;0.20;;;24.50;92.10;;;;;;4975010;28;20834;-69
2023/07/15 15:04:54;;;;;;;0.70;0.10;;;24.50;93.30;;;;;;4975684;28;20464;-68
2023/07/15 15:07:22;;;;;;;2.67;2.47;;;;;;;;;;4975698;28;20446;-68
2023/07/15 15:09:51;;;;;;;0.70;0.10;;;24.50;96.60;;;;;;4975768;28;20446;-70
2023/07/15 15:12:19;;;;;;;0.70;0.20;;;24.50;99.90;;;;;;4993920;28;20468;-69
2023/07/15 15:14:47;;;;;;;0.70;0.20;;;24.60;99.90;;;;;;4994759;28;20553;-68
2023/07/15 15:17:16;;;;;;;1.00;0.80;;;24.60;99.90;;;;;;4995175;28;20481;-68
2023/07/15 15:19:45;;;;;;;0.70;0.30;;;24.50;99.90;;;;;;4996214;28;20873;-67
2023/07/15 15:22:13;;;;;;;0.70;0.10;;;24.00;99.90;;;;;;4995864;28;20477;-69
2023/07/15 15:24:41;;;;;;;0.90;0.70;;;23.90;99.90;;;;;;4992958;28;20539;-67
2023/07/15 15:27:10;;;;;;;0.80;0.40;;;23.80;99.90;;;;;;4991307;28;20492;-67
2023/07/15 15:29:38;;;;;;;0.70;0.23;;;23.60;99.90;;;;;;5003084;28;20448;-71
2023/07/15 15:32:07;;;;;;;2.60;1.53;;;23.60;99.90;;;;;;4984542;28;20448;-69
2023/07/15 15:34:35;;;;;;;1.23;0.93;;;23.70;99.90;;;;;;4985934;28;20567;-68
2023/07/15 15:37:03;;;;;;;1.00;0.77;;;23.50;99.90;;;;;;4979452;28;20548;-69
2023/07/15 15:39:31;;;;;;;0.70;0.20;;;23.60;99.90;;;;;;4990740;28;20472;-69
2023/07/15 15:42:00;;;;;;;1.00;0.60;;;23.60;99.90;;;;;;4982166;28;20452;-69
2023/07/15 15:44:29;;;;;;;1.07;0.73;;;23.60;99.90;;;;;;4984298;28;20520;-69
2023/07/15 15:46:58;;;;;;;3.63;1.90;;;23.50;99.90;;;;;;4979736;28;20517;-69
2023/07/15 15:49:26;;;;;;;1.13;0.60;;;;;;;;;;4972964;28;20466;-68
2023/07/15 15:51:55;;;;;;;0.80;0.63;;;23.60;99.90;;;;;;4975055;28;20464;-68
2023/07/15 15:54:22;;;;;;;0.70;0.30;;;23.60;99.90;;;;;;5002712;28;20496;-68
2023/07/15 15:56:51;;;;;;;0.83;0.50;;;23.70;99.90;;;;;;5008444;28;20476;-74
2023/07/15 15:59:19;;;;;;;0.80;0.30;;;23.50;99.90;;;;;;5003006;28;20463;-67
2023/07/15 16:01:48;;;;;;;2.00;1.00;;;23.40;99.90;;;;;;5003388;28;20511;-66
2023/07/15 16:04:16;;;;;;;0.70;0.10;;;23.40;99.90;;;;;;5011548;28;20969;-66
2023/07/15 16:06:45;;;;;;;0.70;0.20;;;23.40;99.90;;;;;;5013318;28;20454;-66
2023/07/15 16:09:14;;;;;;;0.70;0.17;;;23.60;99.90;;;;;;5013291;28;20447;-66
2023/07/15 16:11:41;;;;;;;0.70;0.20;;;23.60;99.90;;;;;;4999417;28;20488;-66
2023/07/15 16:14:09;;;;;;;0.97;0.70;;;23.70;99.90;;;;;;5028779;23;20538;-75
2023/07/15 16:16:37;;;;;;;0.70;0.10;;;23.90;99.90;;;;;;5012388;28;20480;-71
2023/07/15 16:19:09;;;;;;;0.70;0.37;;;23.90;99.90;;;;;;5012925;28;20447;-70
2023/07/15 16:21:37;;;;;;;0.70;0.20;;;24.00;99.90;;;;;;5012660;28;20451;-72
2023/07/15 16:24:06;;;;;;;1.17;0.87;;;24.20;99.90;;;;;;5012553;28;20973;-70
2023/07/15 16:26:34;;;;;;;0.70;0.20;;;24.30;99.90;;;;;;5013828;28;20451;-72
2023/07/15 16:29:02;;;;;;;0.80;0.67;;;24.50;99.90;;;;;;5018510;28;20563;-71
2023/07/15 16:31:30;;;;;;;0.70;0.20;;;24.50;99.90;;;;;;5020310;28;20443;-71
2023/07/15 16:34:02;;;;;;;0.70;0.10;;;24.60;99.90;;;;;;5015764;28;20495;-70
2023/07/15 16:36:31;;;;;;;0.80;0.40;;;24.60;99.90;;;;;;5013574;28;20456;-69
2023/07/15 16:38:59;;;;;;;0.80;0.20;;;25.00;99.90;;;;;;5013392;28;20487;-71
2023/07/15 16:41:27;;;;;;;0.70;0.10;;;25.20;99.90;;;;;;5011453;28;20888;-71
2023/07/15 16:43:55;;;;;;;0.70;0.20;;;25.50;99.90;;;;;;5009338;28;20475;-72
2023/07/15 16:46:23;;;;;;;0.70;0.30;;;25.60;99.90;;;;;;5015389;28;20514;-72
2023/07/15 16:48:51;;;;;;;1.53;0.93;;;25.90;99.90;;;;;;5014278;28;20999;-72
2023/07/15 16:51:19;;;;;;;0.70;0.20;;;25.90;99.90;;;;;;5016703;28;20448;-72
2023/07/15 16:53:48;;;;;;;0.70;0.20;;;26.10;99.90;;;;;;5013767;28;21010;-70
2023/07/15 16:56:16;;;;;;;0.80;0.30;;;26.10;99.90;;;;;;5013484;28;20546;-70
2023/07/15 16:58:44;;;;;;;0.70;0.10;;;26.10;99.90;;;;;;5012820;28;20515;-70
2023/07/15 17:01:12;;;;;;;1.47;0.50;;;26.20;99.90;;;;;;5012451;28;20462;-72
2023/07/15 17:03:40;;;;;;;0.87;0.50;;;26.10;99.90;;;;;;5012735;28;20753;-73
2023/07/15 17:06:08;;;;;;;0.70;0.10;;;26.00;99.90;;;;;;5013790;28;20987;-71
2023/07/15 17:08:36;;;;;;;0.93;0.40;;;25.70;99.90;;;;;;5012626;28;20523;-71
2023/07/15 17:11:08;;;;;;;2.50;0.40;;;25.70;99.90;;;;;;5012712;28;20455;-72
2023/07/15 17:13:36;;;;;;;13.23;11.03;;;25.70;99.90;;;;;;5012652;28;20486;-71
2023/07/15 17:16:06;;;;;;;0.70;0.10;;;25.90;99.90;;;;;;5012253;28;20459;-72
2023/07/15 17:18:34;;;;;;;0.80;0.27;;;26.10;99.90;;;;;;5012271;28;20475;-73
2023/07/15 17:21:02;;;;;;;0.80;0.30;;;25.80;99.90;;;;;;5015539;28;20443;-71
2023/07/15 17:23:30;;;;;;;1.83;0.40;;;25.60;99.90;;;;;;5012799;28;20966;-72